createdAt,value
2023-02-13T00:00:42.089Z,1025.48
2023-02-13T00:01:42.071Z,1025.47
2023-02-13T00:02:42.143Z,1025.46
2023-02-13T00:03:42.120Z,1025.44
2023-02-13T00:04:42.042Z,1025.43
2023-02-13T00:05:42.034Z,1025.43
2023-02-13T00:06:42.055Z,1025.43
2023-02-13T00:07:42.045Z,1025.42
2023-02-13T00:08:42.009Z,1025.42
2023-02-13T00:09:41.995Z,1025.40
2023-02-13T00:10:41.986Z,1025.39
2023-02-13T00:11:41.968Z,1025.38
2023-02-13T00:12:41.978Z,1025.36
2023-02-13T00:13:41.984Z,1025.34
2023-02-13T00:14:41.939Z,1025.33
2023-02-13T00:15:42.000Z,1025.31
2023-02-13T00:16:41.929Z,1025.30
2023-02-13T00:17:41.930Z,1025.28
2023-02-13T00:18:41.902Z,1025.29
2023-02-13T00:19:41.900Z,1025.28
2023-02-13T00:20:41.887Z,1025.28
2023-02-13T00:21:41.815Z,1025.28
2023-02-13T00:22:41.894Z,1025.28
2023-02-13T00:23:41.884Z,1025.28
2023-02-13T00:24:41.864Z,1025.28
2023-02-13T00:25:41.837Z,1025.28
2023-02-13T00:26:41.817Z,1025.29
2023-02-13T00:27:41.787Z,1025.29
2023-02-13T00:28:41.854Z,1025.28
2023-02-13T00:29:41.800Z,1025.27
2023-02-13T00:30:41.945Z,1025.25
2023-02-13T00:31:41.878Z,1025.24
2023-02-13T00:32:42.726Z,1025.25
2023-02-13T00:33:41.746Z,1025.24
2023-02-13T00:34:41.952Z,1025.23
2023-02-13T00:35:41.698Z,1025.22
2023-02-13T00:36:41.957Z,1025.21
2023-02-13T00:37:41.706Z,1025.20
2023-02-13T00:38:41.977Z,1025.20
2023-02-13T00:39:41.713Z,1025.19
2023-02-13T00:40:41.675Z,1025.19
2023-02-13T00:41:41.644Z,1025.19
2023-02-13T00:42:42.651Z,1025.20
2023-02-13T00:43:41.620Z,1025.21
2023-02-13T00:44:42.149Z,1025.21
2023-02-13T00:45:41.628Z,1025.21
2023-02-13T00:46:41.592Z,1025.20
2023-02-13T00:47:41.614Z,1025.20
2023-02-13T00:48:41.594Z,1025.20
2023-02-13T00:49:41.591Z,1025.20
2023-02-13T00:50:41.548Z,1025.20
2023-02-13T00:51:41.547Z,1025.21
2023-02-13T00:52:41.603Z,1025.22
2023-02-13T00:53:41.535Z,1025.22
2023-02-13T00:54:41.536Z,1025.22
2023-02-13T00:55:41.536Z,1025.21
2023-02-13T00:56:41.516Z,1025.20
2023-02-13T00:57:41.490Z,1025.20
2023-02-13T00:58:41.514Z,1025.19
2023-02-13T00:59:41.468Z,1025.19
2023-02-13T01:00:41.517Z,1025.19
2023-02-13T01:01:41.467Z,1025.21
2023-02-13T01:02:41.458Z,1025.22
2023-02-13T01:03:41.548Z,1025.22
2023-02-13T01:04:41.412Z,1025.23
2023-02-13T01:05:41.423Z,1025.24
2023-02-13T01:06:41.418Z,1025.25
2023-02-13T01:07:41.388Z,1025.25
2023-02-13T01:08:41.377Z,1025.26
2023-02-13T01:09:41.384Z,1025.26
2023-02-13T01:10:41.346Z,1025.26
2023-02-13T01:11:41.347Z,1025.26
2023-02-13T01:12:41.330Z,1025.26
2023-02-13T01:13:41.298Z,1025.26
2023-02-13T01:14:41.355Z,1025.27
2023-02-13T01:15:41.297Z,1025.28
2023-02-13T01:16:41.277Z,1025.29
2023-02-13T01:17:41.297Z,1025.28
2023-02-13T01:18:41.279Z,1025.26
2023-02-13T01:19:41.241Z,1025.24
2023-02-13T01:20:41.252Z,1025.23
2023-02-13T01:21:41.250Z,1025.22
2023-02-13T01:22:41.273Z,1025.21
2023-02-13T01:23:41.193Z,1025.23
2023-02-13T01:24:41.197Z,1025.23
2023-02-13T01:25:41.237Z,1025.24
2023-02-13T01:26:41.177Z,1025.23
2023-02-13T01:27:41.183Z,1025.22
2023-02-13T01:28:41.243Z,1025.21
2023-02-13T01:29:41.166Z,1025.19
2023-02-13T01:30:41.190Z,1025.18
2023-02-13T01:31:41.293Z,1025.19
2023-02-13T01:32:41.113Z,1025.18
2023-02-13T01:33:41.111Z,1025.19
2023-02-13T01:34:41.093Z,1025.18
2023-02-13T01:35:41.091Z,1025.16
2023-02-13T01:36:41.117Z,1025.14
2023-02-13T01:37:41.057Z,1025.14
2023-02-13T01:38:41.076Z,1025.13
2023-02-13T01:39:41.061Z,1025.12
2023-02-13T01:40:41.056Z,1025.11
2023-02-13T01:41:41.040Z,1025.10
2023-02-13T01:42:41.010Z,1025.09
2023-02-13T01:43:40.983Z,1025.07
2023-02-13T01:44:40.991Z,1025.07
2023-02-13T01:45:40.954Z,1025.07
2023-02-13T01:46:41.030Z,1025.06
2023-02-13T01:47:40.939Z,1025.06
2023-02-13T01:48:40.951Z,1025.05
2023-02-13T01:49:40.928Z,1025.04
2023-02-13T01:50:40.928Z,1025.04
2023-02-13T01:51:40.910Z,1025.04
2023-02-13T01:52:40.915Z,1025.04
2023-02-13T01:53:40.882Z,1025.05
2023-02-13T01:54:40.869Z,1025.06
2023-02-13T01:55:40.854Z,1025.06
2023-02-13T01:56:40.854Z,1025.05
2023-02-13T01:57:40.836Z,1025.03
2023-02-13T01:58:40.840Z,1025.02
2023-02-13T01:59:40.810Z,1025.01
2023-02-13T02:00:40.819Z,1024.99
2023-02-13T02:01:40.913Z,1024.99
2023-02-13T02:02:40.828Z,1024.97
2023-02-13T02:03:40.848Z,1024.96
2023-02-13T02:04:40.762Z,1024.94
2023-02-13T02:05:40.797Z,1024.93
2023-02-13T02:06:40.753Z,1024.91
2023-02-13T02:07:40.732Z,1024.89
2023-02-13T02:08:40.753Z,1024.90
2023-02-13T02:09:40.727Z,1024.90
2023-02-13T02:10:40.717Z,1024.90
2023-02-13T02:11:40.687Z,1024.89
2023-02-13T02:12:40.685Z,1024.88
2023-02-13T02:13:40.666Z,1024.88
2023-02-13T02:14:40.681Z,1024.87
2023-02-13T02:15:40.728Z,1024.86
2023-02-13T02:16:40.642Z,1024.86
2023-02-13T02:17:40.638Z,1024.87
2023-02-13T02:18:40.644Z,1024.86
2023-02-13T02:19:40.601Z,1024.86
2023-02-13T02:20:40.605Z,1024.85
2023-02-13T02:21:40.599Z,1024.85
2023-02-13T02:22:40.596Z,1024.85
2023-02-13T02:23:40.565Z,1024.85
2023-02-13T02:24:40.562Z,1024.83
2023-02-13T02:25:40.536Z,1024.82
2023-02-13T02:26:40.558Z,1024.82
2023-02-13T02:27:40.525Z,1024.80
2023-02-13T02:28:40.567Z,1024.79
2023-02-13T02:29:40.505Z,1024.79
2023-02-13T02:30:40.538Z,1024.78
2023-02-13T02:31:40.617Z,1024.78
2023-02-13T02:32:40.486Z,1024.78
2023-02-13T02:33:40.463Z,1024.78
2023-02-13T02:34:40.453Z,1024.79
2023-02-13T02:35:40.455Z,1024.81
2023-02-13T02:36:40.439Z,1024.84
2023-02-13T02:37:40.429Z,1024.85
2023-02-13T02:38:40.428Z,1024.85
2023-02-13T02:39:40.429Z,1024.85
2023-02-13T02:40:40.389Z,1024.84
2023-02-13T02:41:40.413Z,1024.82
2023-02-13T02:42:40.348Z,1024.82
2023-02-13T02:43:40.377Z,1024.81
2023-02-13T02:44:40.341Z,1024.80
2023-02-13T02:45:40.339Z,1024.79
2023-02-13T02:46:40.328Z,1024.80
2023-02-13T02:47:40.325Z,1024.80
2023-02-13T02:48:40.295Z,1024.79
2023-02-13T02:49:40.293Z,1024.77
2023-02-13T02:50:40.271Z,1024.77
2023-02-13T02:51:40.281Z,1024.76
2023-02-13T02:52:40.267Z,1024.77
2023-02-13T02:53:40.249Z,1024.76
2023-02-13T02:54:40.237Z,1024.76
2023-02-13T02:55:40.239Z,1024.76
2023-02-13T02:56:40.209Z,1024.75
2023-02-13T02:57:40.199Z,1024.75
2023-02-13T02:58:40.196Z,1024.75
2023-02-13T02:59:40.187Z,1024.75
2023-02-13T03:00:40.190Z,1024.75
2023-02-13T03:01:40.159Z,1024.74
2023-02-13T03:02:40.144Z,1024.73
2023-02-13T03:03:40.154Z,1024.72
2023-02-13T03:04:40.120Z,1024.71
2023-02-13T03:05:40.136Z,1024.69
2023-02-13T03:06:40.095Z,1024.70
2023-02-13T03:07:40.092Z,1024.69
2023-02-13T03:08:40.082Z,1024.70
2023-02-13T03:09:40.088Z,1024.71
2023-02-13T03:10:40.058Z,1024.72
2023-02-13T03:11:40.053Z,1024.73
2023-02-13T03:12:40.071Z,1024.73
2023-02-13T03:13:40.033Z,1024.74
2023-02-13T03:14:40.020Z,1024.75
2023-02-13T03:15:40.068Z,1024.76
2023-02-13T03:16:40.088Z,1024.76
2023-02-13T03:17:40.016Z,1024.76
2023-02-13T03:18:39.988Z,1024.76
2023-02-13T03:19:39.991Z,1024.76
2023-02-13T03:20:39.960Z,1024.76
2023-02-13T03:21:40.002Z,1024.76
2023-02-13T03:22:39.931Z,1024.76
2023-02-13T03:23:39.963Z,1024.75
2023-02-13T03:24:39.916Z,1024.75
2023-02-13T03:25:39.935Z,1024.75
2023-02-13T03:26:39.932Z,1024.74
2023-02-13T03:27:39.916Z,1024.73
2023-02-13T03:28:39.936Z,1024.73
2023-02-13T03:29:42.571Z,1024.74
2023-02-13T03:30:39.897Z,1024.75
2023-02-13T03:31:39.921Z,1024.75
2023-02-13T03:32:39.845Z,1024.76
2023-02-13T03:33:39.836Z,1024.78
2023-02-13T03:34:39.812Z,1024.79
2023-02-13T03:35:39.846Z,1024.80
2023-02-13T03:36:39.794Z,1024.80
2023-02-13T03:37:39.781Z,1024.78
2023-02-13T03:38:39.793Z,1024.76
2023-02-13T03:39:39.791Z,1024.74
2023-02-13T03:40:39.729Z,1024.73
2023-02-13T03:41:39.757Z,1024.72
2023-02-13T03:42:39.723Z,1024.74
2023-02-13T03:43:39.753Z,1024.74
2023-02-13T03:44:39.717Z,1024.75
2023-02-13T03:45:39.742Z,1024.76
2023-02-13T03:46:39.707Z,1024.75
2023-02-13T03:47:39.676Z,1024.75
2023-02-13T03:48:39.712Z,1024.75
2023-02-13T03:49:39.650Z,1024.76
2023-02-13T03:50:39.643Z,1024.78
2023-02-13T03:51:39.629Z,1024.79
2023-02-13T03:52:39.672Z,1024.79
2023-02-13T03:53:39.617Z,1024.79
2023-02-13T03:54:39.609Z,1024.79
2023-02-13T03:55:39.595Z,1024.80
2023-02-13T03:56:39.568Z,1024.80
2023-02-13T03:57:39.590Z,1024.81
2023-02-13T03:58:39.578Z,1024.80
2023-02-13T03:59:39.588Z,1024.79
2023-02-13T04:00:39.569Z,1024.79
2023-02-13T04:01:39.533Z,1024.77
2023-02-13T04:02:39.516Z,1024.78
2023-02-13T04:03:39.519Z,1024.79
2023-02-13T04:04:39.490Z,1024.79
2023-02-13T04:05:39.480Z,1024.80
2023-02-13T04:06:39.480Z,1024.82
2023-02-13T04:07:39.468Z,1024.82
2023-02-13T04:08:39.507Z,1024.83
2023-02-13T04:09:39.463Z,1024.82
2023-02-13T04:10:39.448Z,1024.83
2023-02-13T04:11:39.466Z,1024.84
2023-02-13T04:12:39.428Z,1024.83
2023-02-13T04:13:39.403Z,1024.83
2023-02-13T04:14:39.402Z,1024.84
2023-02-13T04:15:39.389Z,1024.84
2023-02-13T04:16:39.431Z,1024.84
2023-02-13T04:17:39.403Z,1024.84
2023-02-13T04:18:39.382Z,1024.85
2023-02-13T04:19:39.345Z,1024.85
2023-02-13T04:20:39.346Z,1024.85
2023-02-13T04:21:39.341Z,1024.85
2023-02-13T04:22:39.300Z,1024.84
2023-02-13T04:23:39.302Z,1024.85
2023-02-13T04:24:39.317Z,1024.84
2023-02-13T04:25:39.302Z,1024.84
2023-02-13T04:26:39.251Z,1024.84
2023-02-13T04:27:39.254Z,1024.83
2023-02-13T04:28:39.322Z,1024.84
2023-02-13T04:29:39.228Z,1024.84
2023-02-13T04:30:39.410Z,1024.83
2023-02-13T04:31:39.379Z,1024.84
2023-02-13T04:32:39.228Z,1024.84
2023-02-13T04:33:39.182Z,1024.83
2023-02-13T04:34:39.224Z,1024.84
2023-02-13T04:35:39.178Z,1024.86
2023-02-13T04:36:39.170Z,1024.86
2023-02-13T04:37:39.156Z,1024.87
2023-02-13T04:38:39.144Z,1024.87
2023-02-13T04:39:39.145Z,1024.86
2023-02-13T04:40:39.126Z,1024.86
2023-02-13T04:41:39.111Z,1024.85
2023-02-13T04:42:39.109Z,1024.85
2023-02-13T04:43:39.112Z,1024.85
2023-02-13T04:44:39.073Z,1024.86
2023-02-13T04:45:39.109Z,1024.85
2023-02-13T04:46:39.064Z,1024.85
2023-02-13T04:47:39.061Z,1024.85
2023-02-13T04:48:39.090Z,1024.84
2023-02-13T04:49:38.982Z,1024.83
2023-02-13T04:50:39.020Z,1024.83
2023-02-13T04:51:39.024Z,1024.84
2023-02-13T04:52:39.002Z,1024.84
2023-02-13T04:53:38.992Z,1024.83
2023-02-13T04:54:39.000Z,1024.83
2023-02-13T04:55:38.982Z,1024.81
2023-02-13T04:56:38.960Z,1024.79
2023-02-13T04:57:38.946Z,1024.78
2023-02-13T04:58:38.923Z,1024.77
2023-02-13T04:59:38.955Z,1024.76
2023-02-13T05:00:38.915Z,1024.75
2023-02-13T05:01:38.925Z,1024.73
2023-02-13T05:02:39.696Z,1024.72
2023-02-13T05:03:38.888Z,1024.70
2023-02-13T05:04:38.892Z,1024.70
2023-02-13T05:05:38.886Z,1024.68
2023-02-13T05:06:38.845Z,1024.67
2023-02-13T05:07:38.846Z,1024.66
2023-02-13T05:08:38.826Z,1024.64
2023-02-13T05:09:41.413Z,1024.64
2023-02-13T05:10:38.807Z,1024.63
2023-02-13T05:11:38.817Z,1024.63
2023-02-13T05:12:38.792Z,1024.64
2023-02-13T05:13:38.775Z,1024.64
2023-02-13T05:14:38.786Z,1024.64
2023-02-13T05:15:38.846Z,1024.63
2023-02-13T05:16:38.738Z,1024.63
2023-02-13T05:17:38.752Z,1024.62
2023-02-13T05:18:38.731Z,1024.61
2023-02-13T05:19:38.740Z,1024.60
2023-02-13T05:20:38.724Z,1024.59
2023-02-13T05:21:38.694Z,1024.60
2023-02-13T05:22:38.695Z,1024.60
2023-02-13T05:23:38.681Z,1024.61
2023-02-13T05:24:38.662Z,1024.62
2023-02-13T05:25:38.672Z,1024.62
2023-02-13T05:26:38.633Z,1024.63
2023-02-13T05:27:38.653Z,1024.62
2023-02-13T05:28:38.702Z,1024.62
2023-02-13T05:29:38.608Z,1024.61
2023-02-13T05:30:38.616Z,1024.62
2023-02-13T05:31:38.755Z,1024.61
2023-02-13T05:32:38.574Z,1024.61
2023-02-13T05:33:38.560Z,1024.61
2023-02-13T05:34:38.569Z,1024.62
2023-02-13T05:35:38.554Z,1024.62
2023-02-13T05:36:38.547Z,1024.63
2023-02-13T05:37:38.520Z,1024.64
2023-02-13T05:38:38.516Z,1024.65
2023-02-13T05:39:38.510Z,1024.66
2023-02-13T05:40:38.522Z,1024.67
2023-02-13T05:41:38.511Z,1024.67
2023-02-13T05:42:38.466Z,1024.68
2023-02-13T05:43:38.462Z,1024.68
2023-02-13T05:44:38.468Z,1024.68
2023-02-13T05:45:38.435Z,1024.69
2023-02-13T05:46:39.210Z,1024.69
2023-02-13T05:47:38.429Z,1024.70
2023-02-13T05:48:38.400Z,1024.71
2023-02-13T05:49:38.417Z,1024.71
2023-02-13T05:50:38.416Z,1024.70
2023-02-13T05:51:38.385Z,1024.69
2023-02-13T05:52:38.372Z,1024.69
2023-02-13T05:53:38.374Z,1024.69
2023-02-13T05:54:38.408Z,1024.69
2023-02-13T05:55:38.347Z,1024.69
2023-02-13T05:56:38.324Z,1024.68
2023-02-13T05:57:38.314Z,1024.68
2023-02-13T05:58:38.297Z,1024.68
2023-02-13T05:59:38.306Z,1024.68
2023-02-13T06:00:38.285Z,1024.67
2023-02-13T06:01:38.275Z,1024.67
2023-02-13T06:02:38.313Z,1024.67
2023-02-13T06:03:38.309Z,1024.67
2023-02-13T06:04:38.250Z,1024.67
2023-02-13T06:05:38.236Z,1024.67
2023-02-13T06:06:38.208Z,1024.67
2023-02-13T06:07:38.234Z,1024.68
2023-02-13T06:08:38.191Z,1024.68
2023-02-13T06:09:38.200Z,1024.67
2023-02-13T06:10:38.173Z,1024.68
2023-02-13T06:11:38.179Z,1024.68
2023-02-13T06:12:38.157Z,1024.69
2023-02-13T06:13:38.144Z,1024.70
2023-02-13T06:14:38.125Z,1024.71
2023-02-13T06:15:38.148Z,1024.73
2023-02-13T06:16:38.103Z,1024.74
2023-02-13T06:17:38.118Z,1024.75
2023-02-13T06:18:38.088Z,1024.76
2023-02-13T06:19:38.084Z,1024.77
2023-02-13T06:20:38.110Z,1024.79
2023-02-13T06:21:38.013Z,1024.81
2023-02-13T06:22:38.072Z,1024.83
2023-02-13T06:23:38.003Z,1024.85
2023-02-13T06:24:37.959Z,1024.86
2023-02-13T06:25:37.967Z,1024.87
2023-02-13T06:26:38.004Z,1024.87
2023-02-13T06:27:38.010Z,1024.87
2023-02-13T06:28:38.025Z,1024.86
2023-02-13T06:29:37.913Z,1024.86
2023-02-13T06:30:37.926Z,1024.86
2023-02-13T06:31:37.967Z,1024.86
2023-02-13T06:32:37.894Z,1024.86
2023-02-13T06:33:37.915Z,1024.86
2023-02-13T06:34:37.856Z,1024.87
2023-02-13T06:35:37.859Z,1024.86
2023-02-13T06:36:37.842Z,1024.87
2023-02-13T06:37:37.823Z,1024.88
2023-02-13T06:38:37.807Z,1024.89
2023-02-13T06:39:37.828Z,1024.90
2023-02-13T06:40:37.787Z,1024.90
2023-02-13T06:41:37.788Z,1024.89
2023-02-13T06:42:37.819Z,1024.90
2023-02-13T06:43:39.921Z,1024.91
2023-02-13T06:44:37.753Z,1024.91
2023-02-13T06:45:37.737Z,1024.90
2023-02-13T06:46:37.947Z,1024.90
2023-02-13T06:47:37.849Z,1024.90
2023-02-13T06:48:37.706Z,1024.90
2023-02-13T06:49:37.735Z,1024.90
2023-02-13T06:50:37.718Z,1024.91
2023-02-13T06:51:37.837Z,1024.92
2023-02-13T06:52:37.683Z,1024.92
2023-02-13T06:53:37.799Z,1024.93
2023-02-13T06:55:31.014Z,1024.93
2023-02-13T06:56:31.982Z,1024.93
2023-02-13T06:57:31.978Z,1024.94
2023-02-13T06:58:32.032Z,1024.96
2023-02-13T06:59:31.937Z,1024.98
2023-02-13T07:00:32.016Z,1025.00
2023-02-13T07:01:31.934Z,1025.02
2023-02-13T07:02:32.026Z,1025.02
2023-02-13T07:03:31.917Z,1025.03
2023-02-13T07:04:31.917Z,1025.04
2023-02-13T07:05:31.905Z,1025.04
2023-02-13T07:06:33.487Z,1025.05
2023-02-13T07:07:31.862Z,1025.05
2023-02-13T07:08:31.910Z,1025.07
2023-02-13T07:09:31.839Z,1025.08
2023-02-13T07:10:31.950Z,1025.10
2023-02-13T07:11:31.959Z,1025.11
2023-02-13T07:12:31.814Z,1025.13
2023-02-13T07:13:31.803Z,1025.14
2023-02-13T07:14:31.798Z,1025.16
2023-02-13T07:15:31.783Z,1025.18
2023-02-13T07:16:31.853Z,1025.19
2023-02-13T07:17:31.996Z,1025.20
2023-02-13T07:18:31.742Z,1025.21
2023-02-13T07:19:31.753Z,1025.22
2023-02-13T07:20:31.746Z,1025.21
2023-02-13T07:21:31.735Z,1025.22
2023-02-13T07:22:31.731Z,1025.23
2023-02-13T07:23:31.704Z,1025.24
2023-02-13T07:24:31.677Z,1025.25
2023-02-13T07:25:31.702Z,1025.25
2023-02-13T07:26:31.691Z,1025.26
2023-02-13T07:27:31.709Z,1025.25
2023-02-13T07:28:31.735Z,1025.25
2023-02-13T07:29:31.631Z,1025.24
2023-02-13T07:30:31.755Z,1025.23
2023-02-13T07:31:31.622Z,1025.23
2023-02-13T07:32:31.605Z,1025.23
2023-02-13T07:33:31.584Z,1025.23
2023-02-13T07:34:31.629Z,1025.23
2023-02-13T07:35:31.582Z,1025.22
2023-02-13T07:36:31.557Z,1025.23
2023-02-13T07:37:31.612Z,1025.24
2023-02-13T07:38:31.673Z,1025.25
2023-02-13T07:39:31.524Z,1025.27
2023-02-13T07:40:31.517Z,1025.28
2023-02-13T07:41:31.502Z,1025.30
2023-02-13T07:42:31.500Z,1025.30
2023-02-13T07:43:31.491Z,1025.31
2023-02-13T07:44:31.486Z,1025.30
2023-02-13T07:45:31.455Z,1025.31
2023-02-13T07:46:31.512Z,1025.31
2023-02-13T07:47:31.440Z,1025.32
2023-02-13T07:48:31.478Z,1025.32
2023-02-13T07:49:31.406Z,1025.32
2023-02-13T07:50:31.432Z,1025.32
2023-02-13T07:51:31.389Z,1025.32
2023-02-13T07:52:31.389Z,1025.32
2023-02-13T07:53:31.393Z,1025.32
2023-02-13T07:54:31.403Z,1025.33
2023-02-13T07:55:31.359Z,1025.34
2023-02-13T07:56:31.408Z,1025.35
2023-02-13T07:57:31.334Z,1025.36
2023-02-13T07:58:31.333Z,1025.37
2023-02-13T07:59:31.317Z,1025.38
2023-02-13T08:00:31.324Z,1025.39
2023-02-13T08:01:31.307Z,1025.40
2023-02-13T08:02:31.341Z,1025.39
2023-02-13T08:03:31.330Z,1025.38
2023-02-13T08:04:31.259Z,1025.38
2023-02-13T08:05:31.270Z,1025.38
2023-02-13T08:06:31.298Z,1025.38
2023-02-13T08:07:31.256Z,1025.38
2023-02-13T08:08:31.251Z,1025.37
2023-02-13T08:09:31.199Z,1025.37
2023-02-13T08:10:31.201Z,1025.37
2023-02-13T08:11:31.186Z,1025.38
2023-02-13T08:12:31.197Z,1025.40
2023-02-13T08:13:31.150Z,1025.41
2023-02-13T08:14:31.164Z,1025.43
2023-02-13T08:15:31.148Z,1025.44
2023-02-13T08:16:31.190Z,1025.43
2023-02-13T08:17:31.120Z,1025.42
2023-02-13T08:18:31.128Z,1025.41
2023-02-13T08:19:31.083Z,1025.41
2023-02-13T08:20:31.089Z,1025.41
2023-02-13T08:21:31.061Z,1025.40
2023-02-13T08:22:31.069Z,1025.39
2023-02-13T08:23:31.109Z,1025.39
2023-02-13T08:24:31.050Z,1025.39
2023-02-13T08:25:31.015Z,1025.38
2023-02-13T08:26:31.027Z,1025.38
2023-02-13T08:27:31.014Z,1025.38
2023-02-13T08:28:31.079Z,1025.38
2023-02-13T08:29:30.983Z,1025.39
2023-02-13T08:30:30.978Z,1025.40
2023-02-13T08:31:31.086Z,1025.39
2023-02-13T08:32:35.449Z,1025.40
2023-02-13T08:33:30.940Z,1025.40
2023-02-13T08:34:30.965Z,1025.40
2023-02-13T08:35:30.915Z,1025.39
2023-02-13T08:36:30.898Z,1025.38
2023-02-13T08:37:30.882Z,1025.38
2023-02-13T08:38:30.910Z,1025.37
2023-02-13T08:39:30.881Z,1025.38
2023-02-13T08:40:30.881Z,1025.37
2023-02-13T08:41:31.027Z,1025.38
2023-02-13T08:42:31.418Z,1025.38
2023-02-13T08:43:30.846Z,1025.38
2023-02-13T08:44:31.325Z,1025.38
2023-02-13T08:45:30.840Z,1025.38
2023-02-13T08:46:30.917Z,1025.37
2023-02-13T08:47:30.775Z,1025.37
2023-02-13T08:48:30.792Z,1025.37
2023-02-13T08:49:30.781Z,1025.37
2023-02-13T08:50:30.775Z,1025.38
2023-02-13T08:51:30.818Z,1025.39
2023-02-13T08:52:30.732Z,1025.40
2023-02-13T08:53:30.718Z,1025.42
2023-02-13T08:54:30.736Z,1025.43
2023-02-13T08:55:30.740Z,1025.44
2023-02-13T08:56:30.689Z,1025.45
2023-02-13T08:57:30.732Z,1025.46
2023-02-13T08:58:30.705Z,1025.45
2023-02-13T08:59:30.673Z,1025.46
2023-02-13T09:00:30.691Z,1025.48
2023-02-13T09:01:30.711Z,1025.50
2023-02-13T09:02:30.780Z,1025.51
2023-02-13T09:03:30.613Z,1025.52
2023-02-13T09:04:30.636Z,1025.52
2023-02-13T09:05:30.648Z,1025.51
2023-02-13T09:06:30.662Z,1025.51
2023-02-13T09:07:30.562Z,1025.50
2023-02-13T09:08:30.594Z,1025.49
2023-02-13T09:09:30.545Z,1025.49
2023-02-13T09:10:30.617Z,1025.48
2023-02-13T09:11:30.534Z,1025.47
2023-02-13T09:12:30.611Z,1025.46
2023-02-13T09:13:30.505Z,1025.44
2023-02-13T09:14:30.624Z,1025.44
2023-02-13T09:15:30.559Z,1025.43
2023-02-13T09:16:30.557Z,1025.43
2023-02-13T09:17:30.464Z,1025.43
2023-02-13T09:18:30.503Z,1025.43
2023-02-13T09:19:30.502Z,1025.42
2023-02-13T09:20:30.456Z,1025.42
2023-02-13T09:21:30.423Z,1025.41
2023-02-13T09:22:30.441Z,1025.40
2023-02-13T09:23:30.403Z,1025.38
2023-02-13T09:24:30.401Z,1025.38
2023-02-13T09:25:30.410Z,1025.39
2023-02-13T09:26:30.390Z,1025.40
2023-02-13T09:27:30.394Z,1025.41
2023-02-13T09:28:30.458Z,1025.43
2023-02-13T09:29:30.376Z,1025.45
2023-02-13T09:30:30.419Z,1025.47
2023-02-13T09:31:30.524Z,1025.48
2023-02-13T09:32:30.344Z,1025.49
2023-02-13T09:33:30.320Z,1025.50
2023-02-13T09:34:30.318Z,1025.51
2023-02-13T09:35:30.286Z,1025.51
2023-02-13T09:36:30.310Z,1025.51
2023-02-13T09:37:30.255Z,1025.50
2023-02-13T09:38:30.260Z,1025.49
2023-02-13T09:39:30.271Z,1025.49
2023-02-13T09:40:30.262Z,1025.49
2023-02-13T09:41:30.213Z,1025.50
2023-02-13T09:42:30.232Z,1025.51
2023-02-13T09:43:30.200Z,1025.53
2023-02-13T09:44:30.215Z,1025.54
2023-02-13T09:45:30.177Z,1025.56
2023-02-13T09:46:30.247Z,1025.56
2023-02-13T09:47:30.144Z,1025.56
2023-02-13T09:48:30.157Z,1025.56
2023-02-13T09:49:30.136Z,1025.57
2023-02-13T09:50:30.129Z,1025.57
2023-02-13T09:51:30.135Z,1025.57
2023-02-13T09:52:30.108Z,1025.57
2023-02-13T09:53:30.080Z,1025.57
2023-02-13T09:54:30.085Z,1025.58
2023-02-13T09:55:30.100Z,1025.58
2023-02-13T09:56:30.063Z,1025.59
2023-02-13T09:57:30.051Z,1025.60
2023-02-13T09:58:30.046Z,1025.62
2023-02-13T09:59:30.025Z,1025.62
2023-02-13T10:00:30.022Z,1025.64
2023-02-13T10:01:30.060Z,1025.64
2023-02-13T10:02:30.012Z,1025.64
2023-02-13T10:03:29.989Z,1025.63
2023-02-13T10:04:30.013Z,1025.62
2023-02-13T10:05:29.952Z,1025.62
2023-02-13T10:06:29.974Z,1025.62
2023-02-13T10:07:29.973Z,1025.62
2023-02-13T10:08:29.954Z,1025.62
2023-02-13T10:09:29.953Z,1025.62
2023-02-13T10:10:29.937Z,1025.62
2023-02-13T10:11:29.900Z,1025.62
2023-02-13T10:12:29.879Z,1025.61
2023-02-13T10:13:30.357Z,1025.60
2023-02-13T10:14:31.760Z,1025.60
2023-02-13T10:15:29.903Z,1025.59
2023-02-13T10:16:29.878Z,1025.58
2023-02-13T10:17:29.857Z,1025.58
2023-02-13T10:18:29.844Z,1025.58
2023-02-13T10:19:29.823Z,1025.59
2023-02-13T10:20:29.835Z,1025.58
2023-02-13T10:21:29.790Z,1025.57
2023-02-13T10:22:29.800Z,1025.56
2023-02-13T10:23:29.788Z,1025.54
2023-02-13T10:24:29.792Z,1025.54
2023-02-13T10:25:29.776Z,1025.54
2023-02-13T10:26:29.746Z,1025.54
2023-02-13T10:27:29.755Z,1025.55
2023-02-13T10:28:29.811Z,1025.55
2023-02-13T10:29:29.702Z,1025.53
2023-02-13T10:30:29.722Z,1025.52
2023-02-13T10:31:29.819Z,1025.51
2023-02-13T10:32:29.744Z,1025.49
2023-02-13T10:33:29.908Z,1025.48
2023-02-13T10:34:29.678Z,1025.47
2023-02-13T10:35:29.649Z,1025.47
2023-02-13T10:36:29.677Z,1025.45
2023-02-13T10:37:29.624Z,1025.44
2023-02-13T10:38:29.624Z,1025.43
2023-02-13T10:39:30.408Z,1025.42
2023-02-13T10:40:29.601Z,1025.42
2023-02-13T10:41:29.605Z,1025.41
2023-02-13T10:42:29.584Z,1025.41
2023-02-13T10:43:29.926Z,1025.42
2023-02-13T10:44:29.708Z,1025.45
2023-02-13T10:45:29.548Z,1025.46
2023-02-13T10:46:29.605Z,1025.46
2023-02-13T10:47:29.539Z,1025.47
2023-02-13T10:48:29.522Z,1025.47
2023-02-13T10:49:29.520Z,1025.48
2023-02-13T10:50:29.533Z,1025.47
2023-02-13T10:51:29.485Z,1025.46
2023-02-13T10:52:29.498Z,1025.46
2023-02-13T10:53:29.456Z,1025.46
2023-02-13T10:54:29.537Z,1025.46
2023-02-13T10:55:29.440Z,1025.45
2023-02-13T10:56:29.434Z,1025.43
2023-02-13T10:57:29.453Z,1025.42
2023-02-13T10:58:29.432Z,1025.40
2023-02-13T10:59:29.394Z,1025.41
2023-02-13T11:00:29.394Z,1025.40
2023-02-13T11:01:29.540Z,1025.38
2023-02-13T11:02:29.357Z,1025.37
2023-02-13T11:03:29.406Z,1025.36
2023-02-13T11:04:29.407Z,1025.35
2023-02-13T11:05:29.360Z,1025.34
2023-02-13T11:06:29.311Z,1025.34
2023-02-13T11:07:29.325Z,1025.33
2023-02-13T11:08:29.422Z,1025.32
2023-02-13T11:09:29.293Z,1025.31
2023-02-13T11:10:29.275Z,1025.30
2023-02-13T11:11:29.271Z,1025.28
2023-02-13T11:12:29.277Z,1025.28
2023-02-13T11:13:29.302Z,1025.26
2023-02-13T11:14:29.270Z,1025.24
2023-02-13T11:15:29.231Z,1025.22
2023-02-13T11:16:29.544Z,1025.20
2023-02-13T11:17:29.214Z,1025.17
2023-02-13T11:18:29.251Z,1025.17
2023-02-13T11:19:29.213Z,1025.17
2023-02-13T11:20:29.174Z,1025.17
2023-02-13T11:21:29.172Z,1025.15
2023-02-13T11:22:29.145Z,1025.14
2023-02-13T11:23:29.180Z,1025.13
2023-02-13T11:24:29.133Z,1025.10
2023-02-13T11:25:29.161Z,1025.09
2023-02-13T11:26:29.135Z,1025.08
2023-02-13T11:27:29.110Z,1025.08
2023-02-13T11:28:29.174Z,1025.06
2023-02-13T11:29:29.104Z,1025.06
2023-02-13T11:30:29.082Z,1025.05
2023-02-13T11:31:29.169Z,1025.04
2023-02-13T11:32:29.105Z,1025.04
2023-02-13T11:33:29.041Z,1025.02
2023-02-13T11:34:29.152Z,1025.02
2023-02-13T11:35:29.028Z,1025.01
2023-02-13T11:36:29.005Z,1024.98
2023-02-13T11:37:29.014Z,1024.97
2023-02-13T11:38:28.994Z,1024.95
2023-02-13T11:39:28.980Z,1024.95
2023-02-13T11:40:28.986Z,1024.93
2023-02-13T11:41:28.969Z,1024.91
2023-02-13T11:42:28.938Z,1024.89
2023-02-13T11:43:28.936Z,1024.88
2023-02-13T11:44:28.951Z,1024.88
2023-02-13T11:45:29.488Z,1024.87
2023-02-13T11:46:28.958Z,1024.87
2023-02-13T11:47:28.892Z,1024.87
2023-02-13T11:48:28.882Z,1024.86
2023-02-13T11:49:28.911Z,1024.86
2023-02-13T11:50:28.852Z,1024.85
2023-02-13T11:51:28.889Z,1024.84
2023-02-13T11:52:28.836Z,1024.85
2023-02-13T11:53:28.840Z,1024.85
2023-02-13T11:54:28.837Z,1024.85
2023-02-13T11:55:28.830Z,1024.85
2023-02-13T11:56:28.816Z,1024.84
2023-02-13T11:57:28.798Z,1024.83
2023-02-13T11:58:28.818Z,1024.81
2023-02-13T11:59:28.782Z,1024.80
2023-02-13T12:00:31.393Z,1024.81
2023-02-13T12:01:28.783Z,1024.81
2023-02-13T12:02:28.781Z,1024.80
2023-02-13T12:03:28.946Z,1024.81
2023-02-13T12:04:28.722Z,1024.80
2023-02-13T12:05:28.704Z,1024.79
2023-02-13T12:06:28.732Z,1024.77